Main page
METAR-TAF:

METAR-TAF

Airports :

Sion Airport

Sion, Switzerland

latitude: 46-13N, longitude: 007-20E, elevation: 482 m

Current weather observation

The report was made 15 minutes ago, at 23:50 UTC
Wind 1 kt from variable directions
Temperature 1°C
Humidity 100%
Pressure 1007 hPa
Visibility: 0550 m
fog

METAR: LSGS 172350Z AUTO VRB01KT 0550 FG VV002 01/01 Q1007

Time: 01:05 (00:05 UTC)

Forecast

The report was made 9 hours and 40 minutes ago, at 14:25 UTC
Forecast valid from 17 at 15 UTC to 17 at 24 UTC
Wind 3 kt from the West/Southwest
Visibility: 7000 m
Broken clouds at a height of 1000 ft
Overcast at a height of 4000 ft
light rain
Temporary
from 17 at 15 UTC to 17 at 24 UTC
Visibility: 4500 m
Broken clouds at a height of 900 ft
rain, snow

TAF: LSGS 171425Z 1715/1724 25003KT 7000 -RA BKN010 OVC040 TEMPO 1715/1724 4500 RASN BKN009

Weather observations and forecasts of more than 4000 airports (METAR and TAF reports).

The available stations are represented by yellow and red dots on the map.

Hover mouse over dot to see the name of the station.

Then click to see weather observations and forecasts.

To change the map : click on the green buttons with a black cross to zoom in, on the green button with a dash to zoom out, or on the green arrows for adjacent maps.


METAR-TAF: